sensor_id;sensor_type;location;lat;lon;timestamp;temperature;humidity
24152;DHT22;12311;50.866;4.332;2022-09-09T00:03:44;15.30;99.90
24152;DHT22;12311;50.866;4.332;2022-09-09T00:09:19;15.30;99.90
24152;DHT22;12311;50.866;4.332;2022-09-09T00:11:51;15.30;99.90
24152;DHT22;12311;50.866;4.332;2022-09-09T00:23:29;15.10;99.90
24152;DHT22;12311;50.866;4.332;2022-09-09T00:28:26;15.10;99.90
24152;DHT22;12311;50.866;4.332;2022-09-09T00:30:52;15.20;99.90
24152;DHT22;12311;50.866;4.332;2022-09-09T00:33:20;15.10;99.90
24152;DHT22;12311;50.866;4.332;2022-09-09T00:35:54;15.20;99.90
24152;DHT22;12311;50.866;4.332;2022-09-09T00:38:33;15.20;99.90
24152;DHT22;12311;50.866;4.332;2022-09-09T00:44:33;15.30;99.90
24152;DHT22;12311;50.866;4.332;2022-09-09T00:50:09;15.50;99.90
24152;DHT22;12311;50.866;4.332;2022-09-09T00:56:00;15.50;99.90
24152;DHT22;12311;50.866;4.332;2022-09-09T00:58:30;15.40;99.90
24152;DHT22;12311;50.866;4.332;2022-09-09T01:01:10;15.40;99.90
24152;DHT22;12311;50.866;4.332;2022-09-09T01:04:04;15.40;99.90
24152;DHT22;12311;50.866;4.332;2022-09-09T01:06:36;15.40;99.90
24152;DHT22;12311;50.866;4.332;2022-09-09T01:09:37;15.40;99.90
24152;DHT22;12311;50.866;4.332;2022-09-09T01:12:07;15.50;99.90
24152;DHT22;12311;50.866;4.332;2022-09-09T01:17:09;15.50;99.90
24152;DHT22;12311;50.866;4.332;2022-09-09T01:22:11;15.50;99.90
24152;DHT22;12311;50.866;4.332;2022-09-09T01:27:43;15.50;99.90
24152;DHT22;12311;50.866;4.332;2022-09-09T01:30:13;15.50;99.90
24152;DHT22;12311;50.866;4.332;2022-09-09T01:32:43;15.50;99.90
24152;DHT22;12311;50.866;4.332;2022-09-09T01:35:17;15.50;99.90
24152;DHT22;12311;50.866;4.332;2022-09-09T01:37:47;15.50;99.90
24152;DHT22;12311;50.866;4.332;2022-09-09T01:40:13;15.50;99.90
24152;DHT22;12311;50.866;4.332;2022-09-09T01:42:39;15.50;99.90
24152;DHT22;12311;50.866;4.332;2022-09-09T01:45:05;15.60;99.90
24152;DHT22;12311;50.866;4.332;2022-09-09T01:47:31;15.50;99.90
24152;DHT22;12311;50.866;4.332;2022-09-09T01:49:57;15.50;99.90
24152;DHT22;12311;50.866;4.332;2022-09-09T01:52:23;15.50;99.90
24152;DHT22;12311;50.866;4.332;2022-09-09T01:54:49;15.50;99.90
24152;DHT22;12311;50.866;4.332;2022-09-09T01:57:26;15.50;99.90
24152;DHT22;12311;50.866;4.332;2022-09-09T02:00:06;15.50;99.90
24152;DHT22;12311;50.866;4.332;2022-09-09T02:03:04;15.50;99.90
24152;DHT22;12311;50.866;4.332;2022-09-09T02:05:44;15.60;99.90
24152;DHT22;12311;50.866;4.332;2022-09-09T02:08:39;15.50;99.90
24152;DHT22;12311;50.866;4.332;2022-09-09T02:11:18;15.50;99.90
24152;DHT22;12311;50.866;4.332;2022-09-09T02:13:46;15.50;99.90
24152;DHT22;12311;50.866;4.332;2022-09-09T02:16:30;15.50;99.90
24152;DHT22;12311;50.866;4.332;2022-09-09T02:21:40;15.60;99.90
24152;DHT22;12311;50.866;4.332;2022-09-09T02:24:08;15.50;99.90
24152;DHT22;12311;50.866;4.332;2022-09-09T02:26:39;15.60;99.90
24152;DHT22;12311;50.866;4.332;2022-09-09T02:29:09;15.60;99.90
24152;DHT22;12311;50.866;4.332;2022-09-09T02:31:38;15.60;99.90
24152;DHT22;12311;50.866;4.332;2022-09-09T02:34:05;15.70;99.90
24152;DHT22;12311;50.866;4.332;2022-09-09T02:36:34;15.60;99.90
24152;DHT22;12311;50.866;4.332;2022-09-09T02:39:01;15.70;99.90
24152;DHT22;12311;50.866;4.332;2022-09-09T02:41:31;15.60;99.90
24152;DHT22;12311;50.866;4.332;2022-09-09T02:43:57;15.70;99.90
24152;DHT22;12311;50.866;4.332;2022-09-09T02:52:08;15.70;99.90
24152;DHT22;12311;50.866;4.332;2022-09-09T02:54:39;15.70;99.90
24152;DHT22;12311;50.866;4.332;2022-09-09T02:57:22;15.60;99.90
24152;DHT22;12311;50.866;4.332;2022-09-09T02:59:49;15.60;99.90
24152;DHT22;12311;50.866;4.332;2022-09-09T03:02:15;15.60;99.90
24152;DHT22;12311;50.866;4.332;2022-09-09T03:04:41;15.70;99.90
24152;DHT22;12311;50.866;4.332;2022-09-09T03:07:13;15.70;99.90
24152;DHT22;12311;50.866;4.332;2022-09-09T03:09:38;15.70;99.90
24152;DHT22;12311;50.866;4.332;2022-09-09T03:12:04;15.70;99.90
24152;DHT22;12311;50.866;4.332;2022-09-09T03:14:30;15.70;99.90
24152;DHT22;12311;50.866;4.332;2022-09-09T03:16:56;15.70;99.90
24152;DHT22;12311;50.866;4.332;2022-09-09T03:19:23;15.60;99.90
24152;DHT22;12311;50.866;4.332;2022-09-09T03:21:49;15.70;99.90
24152;DHT22;12311;50.866;4.332;2022-09-09T03:24:14;15.60;99.90
24152;DHT22;12311;50.866;4.332;2022-09-09T03:26:41;15.60;99.90
24152;DHT22;12311;50.866;4.332;2022-09-09T03:29:10;15.70;99.90
24152;DHT22;12311;50.866;4.332;2022-09-09T03:31:38;15.60;99.90
24152;DHT22;12311;50.866;4.332;2022-09-09T03:34:04;15.60;99.90
24152;DHT22;12311;50.866;4.332;2022-09-09T03:36:30;15.60;99.90
24152;DHT22;12311;50.866;4.332;2022-09-09T03:38:55;15.60;99.90
24152;DHT22;12311;50.866;4.332;2022-09-09T03:41:22;15.60;99.90
24152;DHT22;12311;50.866;4.332;2022-09-09T03:43:52;15.70;99.90
24152;DHT22;12311;50.866;4.332;2022-09-09T03:46:20;15.60;99.90
24152;DHT22;12311;50.866;4.332;2022-09-09T03:48:46;15.60;99.90
24152;DHT22;12311;50.866;4.332;2022-09-09T03:51:12;15.60;99.90
24152;DHT22;12311;50.866;4.332;2022-09-09T03:53:38;15.70;99.90
24152;DHT22;12311;50.866;4.332;2022-09-09T03:56:04;15.70;99.90
24152;DHT22;12311;50.866;4.332;2022-09-09T03:58:36;15.80;99.90
24152;DHT22;12311;50.866;4.332;2022-09-09T04:01:10;15.70;99.90
24152;DHT22;12311;50.866;4.332;2022-09-09T04:03:38;15.70;99.90
24152;DHT22;12311;50.866;4.332;2022-09-09T04:06:05;15.70;99.90
24152;DHT22;12311;50.866;4.332;2022-09-09T04:08:32;15.70;99.90
24152;DHT22;12311;50.866;4.332;2022-09-09T04:10:58;15.70;99.90
24152;DHT22;12311;50.866;4.332;2022-09-09T04:13:24;15.70;99.90
24152;DHT22;12311;50.866;4.332;2022-09-09T04:15:52;15.70;99.90
24152;DHT22;12311;50.866;4.332;2022-09-09T04:18:19;15.70;99.90
24152;DHT22;12311;50.866;4.332;2022-09-09T04:20:52;15.70;99.90
24152;DHT22;12311;50.866;4.332;2022-09-09T04:23:18;15.60;99.90
24152;DHT22;12311;50.866;4.332;2022-09-09T04:25:47;15.60;99.90
24152;DHT22;12311;50.866;4.332;2022-09-09T04:28:14;15.60;99.90
24152;DHT22;12311;50.866;4.332;2022-09-09T04:30:40;15.50;99.90
24152;DHT22;12311;50.866;4.332;2022-09-09T04:33:07;15.50;99.90
24152;DHT22;12311;50.866;4.332;2022-09-09T04:35:33;15.50;99.90
24152;DHT22;12311;50.866;4.332;2022-09-09T04:37:59;15.50;99.90
24152;DHT22;12311;50.866;4.332;2022-09-09T04:40:24;15.50;99.90
24152;DHT22;12311;50.866;4.332;2022-09-09T04:42:51;15.50;99.90
24152;DHT22;12311;50.866;4.332;2022-09-09T04:45:17;15.50;99.90
24152;DHT22;12311;50.866;4.332;2022-09-09T04:47:43;15.50;99.90
24152;DHT22;12311;50.866;4.332;2022-09-09T04:50:09;15.50;99.90
24152;DHT22;12311;50.866;4.332;2022-09-09T04:52:35;15.60;99.90
24152;DHT22;12311;50.866;4.332;2022-09-09T04:55:01;15.60;99.90
24152;DHT22;12311;50.866;4.332;2022-09-09T04:57:27;15.60;99.90
24152;DHT22;12311;50.866;4.332;2022-09-09T04:59:52;15.60;99.90
24152;DHT22;12311;50.866;4.332;2022-09-09T05:02:18;15.60;99.90
24152;DHT22;12311;50.866;4.332;2022-09-09T05:04:43;15.50;99.90
24152;DHT22;12311;50.866;4.332;2022-09-09T05:07:09;15.60;99.90
24152;DHT22;12311;50.866;4.332;2022-09-09T05:09:35;15.60;99.90
24152;DHT22;12311;50.866;4.332;2022-09-09T05:12:01;15.60;99.90
24152;DHT22;12311;50.866;4.332;2022-09-09T05:14:28;15.60;99.90
24152;DHT22;12311;50.866;4.332;2022-09-09T05:16:55;15.60;99.90
24152;DHT22;12311;50.866;4.332;2022-09-09T05:19:21;15.70;99.90
24152;DHT22;12311;50.866;4.332;2022-09-09T05:21:47;15.70;99.90
24152;DHT22;12311;50.866;4.332;2022-09-09T05:24:13;15.70;99.90
24152;DHT22;12311;50.866;4.332;2022-09-09T05:26:39;15.70;99.90
24152;DHT22;12311;50.866;4.332;2022-09-09T05:29:04;15.70;99.90
24152;DHT22;12311;50.866;4.332;2022-09-09T05:31:31;15.80;99.90
24152;DHT22;12311;50.866;4.332;2022-09-09T05:33:58;15.80;99.90
24152;DHT22;12311;50.866;4.332;2022-09-09T05:36:24;15.80;99.90
24152;DHT22;12311;50.866;4.332;2022-09-09T05:38:50;15.90;99.90
24152;DHT22;12311;50.866;4.332;2022-09-09T05:41:16;15.90;99.90
24152;DHT22;12311;50.866;4.332;2022-09-09T05:43:43;15.90;99.90
24152;DHT22;12311;50.866;4.332;2022-09-09T05:46:15;15.90;99.90
24152;DHT22;12311;50.866;4.332;2022-09-09T05:48:45;15.80;99.90
24152;DHT22;12311;50.866;4.332;2022-09-09T05:51:18;15.70;99.90
24152;DHT22;12311;50.866;4.332;2022-09-09T05:53:45;15.70;99.90
24152;DHT22;12311;50.866;4.332;2022-09-09T05:56:18;15.80;99.90
24152;DHT22;12311;50.866;4.332;2022-09-09T05:58:45;15.90;99.90
24152;DHT22;12311;50.866;4.332;2022-09-09T06:01:33;15.80;99.90
24152;DHT22;12311;50.866;4.332;2022-09-09T06:03:59;15.80;99.90
24152;DHT22;12311;50.866;4.332;2022-09-09T06:06:27;15.80;99.90
24152;DHT22;12311;50.866;4.332;2022-09-09T06:08:55;15.80;99.90
24152;DHT22;12311;50.866;4.332;2022-09-09T06:11:28;15.90;99.90
24152;DHT22;12311;50.866;4.332;2022-09-09T06:13:56;16.10;99.90
24152;DHT22;12311;50.866;4.332;2022-09-09T06:16:24;16.20;99.90
24152;DHT22;12311;50.866;4.332;2022-09-09T06:18:50;16.20;99.90
24152;DHT22;12311;50.866;4.332;2022-09-09T06:21:21;16.20;99.90
24152;DHT22;12311;50.866;4.332;2022-09-09T06:23:48;16.30;99.90
24152;DHT22;12311;50.866;4.332;2022-09-09T06:26:24;16.20;99.90
24152;DHT22;12311;50.866;4.332;2022-09-09T06:28:52;16.20;99.90
24152;DHT22;12311;50.866;4.332;2022-09-09T06:31:21;16.30;99.90
24152;DHT22;12311;50.866;4.332;2022-09-09T06:33:47;16.30;99.90
24152;DHT22;12311;50.866;4.332;2022-09-09T06:36:15;16.30;99.90
24152;DHT22;12311;50.866;4.332;2022-09-09T06:38:41;16.30;99.90
24152;DHT22;12311;50.866;4.332;2022-09-09T06:41:09;16.40;99.90
24152;DHT22;12311;50.866;4.332;2022-09-09T06:43:35;16.50;99.90
24152;DHT22;12311;50.866;4.332;2022-09-09T06:46:05;16.40;99.90
24152;DHT22;12311;50.866;4.332;2022-09-09T06:48:31;16.50;99.90
24152;DHT22;12311;50.866;4.332;2022-09-09T06:51:15;16.50;99.90
24152;DHT22;12311;50.866;4.332;2022-09-09T06:53:43;16.50;99.90
24152;DHT22;12311;50.866;4.332;2022-09-09T06:58:44;16.50;99.90
24152;DHT22;12311;50.866;4.332;2022-09-09T07:01:12;16.50;99.90
24152;DHT22;12311;50.866;4.332;2022-09-09T07:03:46;16.50;99.90
24152;DHT22;12311;50.866;4.332;2022-09-09T07:06:19;16.50;99.90
24152;DHT22;12311;50.866;4.332;2022-09-09T07:08:52;16.60;99.90
24152;DHT22;12311;50.866;4.332;2022-09-09T07:11:20;16.70;99.90
24152;DHT22;12311;50.866;4.332;2022-09-09T07:13:46;16.60;99.90
24152;DHT22;12311;50.866;4.332;2022-09-09T07:16:16;16.50;99.90
24152;DHT22;12311;50.866;4.332;2022-09-09T07:18:43;16.60;99.90
24152;DHT22;12311;50.866;4.332;2022-09-09T07:21:13;16.60;99.90
24152;DHT22;12311;50.866;4.332;2022-09-09T07:23:40;16.70;99.90
24152;DHT22;12311;50.866;4.332;2022-09-09T07:26:10;16.70;99.90
24152;DHT22;12311;50.866;4.332;2022-09-09T07:28:36;16.80;99.90
24152;DHT22;12311;50.866;4.332;2022-09-09T07:31:02;16.80;99.90
24152;DHT22;12311;50.866;4.332;2022-09-09T07:33:29;16.80;99.90
24152;DHT22;12311;50.866;4.332;2022-09-09T07:36:13;16.80;99.90
24152;DHT22;12311;50.866;4.332;2022-09-09T07:38:41;16.80;99.90
24152;DHT22;12311;50.866;4.332;2022-09-09T07:41:10;16.70;99.90
24152;DHT22;12311;50.866;4.332;2022-09-09T07:43:40;16.50;99.90
24152;DHT22;12311;50.866;4.332;2022-09-09T07:46:06;16.30;99.90
24152;DHT22;12311;50.866;4.332;2022-09-09T07:48:33;16.40;99.90
24152;DHT22;12311;50.866;4.332;2022-09-09T07:51:10;16.40;99.90
24152;DHT22;12311;50.866;4.332;2022-09-09T07:53:37;16.30;99.90
24152;DHT22;12311;50.866;4.332;2022-09-09T07:56:12;16.30;99.90
24152;DHT22;12311;50.866;4.332;2022-09-09T07:58:39;16.40;99.90
24152;DHT22;12311;50.866;4.332;2022-09-09T08:01:19;16.40;99.90
24152;DHT22;12311;50.866;4.332;2022-09-09T08:03:51;16.60;99.90
24152;DHT22;12311;50.866;4.332;2022-09-09T08:06:17;16.80;99.90
24152;DHT22;12311;50.866;4.332;2022-09-09T08:08:50;16.80;99.90
24152;DHT22;12311;50.866;4.332;2022-09-09T08:11:22;16.90;99.90
24152;DHT22;12311;50.866;4.332;2022-09-09T08:13:50;16.90;99.90
24152;DHT22;12311;50.866;4.332;2022-09-09T08:16:19;17.00;99.90
24152;DHT22;12311;50.866;4.332;2022-09-09T08:18:47;17.00;99.90
24152;DHT22;12311;50.866;4.332;2022-09-09T08:21:19;17.00;99.90
24152;DHT22;12311;50.866;4.332;2022-09-09T08:23:46;16.90;99.90
24152;DHT22;12311;50.866;4.332;2022-09-09T08:26:27;16.90;99.90
24152;DHT22;12311;50.866;4.332;2022-09-09T08:28:56;16.90;99.90
24152;DHT22;12311;50.866;4.332;2022-09-09T08:31:27;17.00;99.90
24152;DHT22;12311;50.866;4.332;2022-09-09T08:33:54;17.00;99.90
24152;DHT22;12311;50.866;4.332;2022-09-09T08:36:22;17.00;99.90
24152;DHT22;12311;50.866;4.332;2022-09-09T08:38:53;17.00;99.90
24152;DHT22;12311;50.866;4.332;2022-09-09T08:44:13;16.80;99.90
24152;DHT22;12311;50.866;4.332;2022-09-09T08:46:57;16.70;99.90
24152;DHT22;12311;50.866;4.332;2022-09-09T08:52:37;16.60;99.90
24152;DHT22;12311;50.866;4.332;2022-09-09T08:55:19;16.50;99.90
24152;DHT22;12311;50.866;4.332;2022-09-09T08:57:48;16.50;99.90
24152;DHT22;12311;50.866;4.332;2022-09-09T09:00:14;16.50;99.90
24152;DHT22;12311;50.866;4.332;2022-09-09T09:02:59;16.50;99.90
24152;DHT22;12311;50.866;4.332;2022-09-09T09:10:48;16.50;99.90
24152;DHT22;12311;50.866;4.332;2022-09-09T09:13:20;16.40;99.90
24152;DHT22;12311;50.866;4.332;2022-09-09T09:15:58;16.40;99.90
24152;DHT22;12311;50.866;4.332;2022-09-09T09:18:26;16.50;99.90
24152;DHT22;12311;50.866;4.332;2022-09-09T09:23:57;16.50;99.90
24152;DHT22;12311;50.866;4.332;2022-09-09T09:26:33;16.60;99.90
24152;DHT22;12311;50.866;4.332;2022-09-09T09:29:03;16.60;99.90
24152;DHT22;12311;50.866;4.332;2022-09-09T09:31:33;16.70;99.90
24152;DHT22;12311;50.866;4.332;2022-09-09T09:33:59;16.70;99.90
24152;DHT22;12311;50.866;4.332;2022-09-09T09:36:52;16.60;99.90
24152;DHT22;12311;50.866;4.332;2022-09-09T09:39:29;16.60;99.90
24152;DHT22;12311;50.866;4.332;2022-09-09T09:41:56;16.60;99.90
24152;DHT22;12311;50.866;4.332;2022-09-09T09:44:31;16.50;99.90
24152;DHT22;12311;50.866;4.332;2022-09-09T09:49:39;16.60;99.90
24152;DHT22;12311;50.866;4.332;2022-09-09T09:52:18;16.60;99.90
24152;DHT22;12311;50.866;4.332;2022-09-09T09:54:46;16.70;99.90
24152;DHT22;12311;50.866;4.332;2022-09-09T09:57:14;16.70;99.90
24152;DHT22;12311;50.866;4.332;2022-09-09T09:59:44;16.70;99.90
24152;DHT22;12311;50.866;4.332;2022-09-09T10:04:38;16.80;99.90
24152;DHT22;12311;50.866;4.332;2022-09-09T10:07:19;16.80;99.90
24152;DHT22;12311;50.866;4.332;2022-09-09T10:09:54;16.80;99.90
24152;DHT22;12311;50.866;4.332;2022-09-09T10:21:03;17.20;99.90
24152;DHT22;12311;50.866;4.332;2022-09-09T10:26:44;17.40;99.90
24152;DHT22;12311;50.866;4.332;2022-09-09T10:51:43;18.90;99.90
24152;DHT22;12311;50.866;4.332;2022-09-09T10:57:22;18.90;99.90
24152;DHT22;12311;50.866;4.332;2022-09-09T10:59:53;18.90;99.90
24152;DHT22;12311;50.866;4.332;2022-09-09T11:02:33;18.90;99.90
24152;DHT22;12311;50.866;4.332;2022-09-09T11:08:05;18.70;99.90
24152;DHT22;12311;50.866;4.332;2022-09-09T11:10:36;18.60;99.90
24152;DHT22;12311;50.866;4.332;2022-09-09T11:13:20;18.70;99.90
24152;DHT22;12311;50.866;4.332;2022-09-09T11:15:54;18.70;99.90
24152;DHT22;12311;50.866;4.332;2022-09-09T11:18:23;18.60;99.90
24152;DHT22;12311;50.866;4.332;2022-09-09T11:20:56;18.70;99.90
24152;DHT22;12311;50.866;4.332;2022-09-09T11:26:04;18.80;99.90
24152;DHT22;12311;50.866;4.332;2022-09-09T11:39:44;18.70;99.90
24152;DHT22;12311;50.866;4.332;2022-09-09T11:42:15;18.70;99.90
24152;DHT22;12311;50.866;4.332;2022-09-09T11:44:42;18.60;99.90
24152;DHT22;12311;50.866;4.332;2022-09-09T11:47:30;18.60;99.90
24152;DHT22;12311;50.866;4.332;2022-09-09T11:52:46;18.50;99.90
24152;DHT22;12311;50.866;4.332;2022-09-09T11:55:27;18.40;99.90
24152;DHT22;12311;50.866;4.332;2022-09-09T12:00:41;18.60;99.90
24152;DHT22;12311;50.866;4.332;2022-09-09T12:03:44;18.50;99.90
24152;DHT22;12311;50.866;4.332;2022-09-09T12:06:25;18.50;99.90
24152;DHT22;12311;50.866;4.332;2022-09-09T12:08:57;18.60;99.90
24152;DHT22;12311;50.866;4.332;2022-09-09T12:11:28;18.50;99.90
24152;DHT22;12311;50.866;4.332;2022-09-09T12:13:56;18.40;99.90
24152;DHT22;12311;50.866;4.332;2022-09-09T12:16:36;18.40;99.90
24152;DHT22;12311;50.866;4.332;2022-09-09T12:19:16;18.50;99.90
24152;DHT22;12311;50.866;4.332;2022-09-09T12:24:59;18.40;99.90
24152;DHT22;12311;50.866;4.332;2022-09-09T12:27:35;18.40;99.90
24152;DHT22;12311;50.866;4.332;2022-09-09T12:30:09;18.40;99.90
24152;DHT22;12311;50.866;4.332;2022-09-09T12:32:36;18.50;99.90
24152;DHT22;12311;50.866;4.332;2022-09-09T12:35:24;18.60;99.90
24152;DHT22;12311;50.866;4.332;2022-09-09T12:37:53;18.60;99.90
24152;DHT22;12311;50.866;4.332;2022-09-09T12:40:27;18.60;99.90
24152;DHT22;12311;50.866;4.332;2022-09-09T12:42:54;18.80;99.90
24152;DHT22;12311;50.866;4.332;2022-09-09T12:45:26;19.10;99.90
24152;DHT22;12311;50.866;4.332;2022-09-09T12:48:03;19.20;99.90
24152;DHT22;12311;50.866;4.332;2022-09-09T12:50:33;19.30;99.90
24152;DHT22;12311;50.866;4.332;2022-09-09T12:53:03;19.20;99.90
24152;DHT22;12311;50.866;4.332;2022-09-09T12:55:36;19.20;99.90
24152;DHT22;12311;50.866;4.332;2022-09-09T12:58:04;19.30;99.90
24152;DHT22;12311;50.866;4.332;2022-09-09T13:00:32;19.50;99.90
24152;DHT22;12311;50.866;4.332;2022-09-09T13:03:13;19.70;99.90
24152;DHT22;12311;50.866;4.332;2022-09-09T13:05:40;19.80;99.90
24152;DHT22;12311;50.866;4.332;2022-09-09T13:08:11;20.00;99.90
24152;DHT22;12311;50.866;4.332;2022-09-09T13:10:38;19.90;99.90
24152;DHT22;12311;50.866;4.332;2022-09-09T13:13:15;19.80;99.90
24152;DHT22;12311;50.866;4.332;2022-09-09T13:16:01;19.80;99.90
24152;DHT22;12311;50.866;4.332;2022-09-09T13:18:36;19.90;99.90
24152;DHT22;12311;50.866;4.332;2022-09-09T13:21:03;20.10;99.90
24152;DHT22;12311;50.866;4.332;2022-09-09T13:23:35;20.00;99.90
24152;DHT22;12311;50.866;4.332;2022-09-09T13:26:04;19.90;99.90
24152;DHT22;12311;50.866;4.332;2022-09-09T13:28:32;19.80;99.90
24152;DHT22;12311;50.866;4.332;2022-09-09T13:31:03;19.90;99.90
24152;DHT22;12311;50.866;4.332;2022-09-09T13:33:39;20.00;99.90
24152;DHT22;12311;50.866;4.332;2022-09-09T13:36:07;20.00;99.90
24152;DHT22;12311;50.866;4.332;2022-09-09T13:41:20;20.80;99.90
24152;DHT22;12311;50.866;4.332;2022-09-09T13:43:47;20.80;99.90
24152;DHT22;12311;50.866;4.332;2022-09-09T13:48:55;21.20;99.90
24152;DHT22;12311;50.866;4.332;2022-09-09T13:51:37;21.50;99.90
24152;DHT22;12311;50.866;4.332;2022-09-09T13:54:04;21.40;99.90
24152;DHT22;12311;50.866;4.332;2022-09-09T13:56:35;21.00;99.90
24152;DHT22;12311;50.866;4.332;2022-09-09T13:59:01;20.90;99.90
24152;DHT22;12311;50.866;4.332;2022-09-09T14:01:27;20.80;99.90
24152;DHT22;12311;50.866;4.332;2022-09-09T14:03:53;20.90;99.90
24152;DHT22;12311;50.866;4.332;2022-09-09T14:06:19;20.90;99.90
24152;DHT22;12311;50.866;4.332;2022-09-09T14:08:48;21.10;99.90
24152;DHT22;12311;50.866;4.332;2022-09-09T14:11:14;21.30;99.90
24152;DHT22;12311;50.866;4.332;2022-09-09T14:13:40;21.90;99.90
24152;DHT22;12311;50.866;4.332;2022-09-09T14:16:06;22.10;99.90
24152;DHT22;12311;50.866;4.332;2022-09-09T14:18:31;21.90;99.90
24152;DHT22;12311;50.866;4.332;2022-09-09T14:20:57;21.50;99.90
24152;DHT22;12311;50.866;4.332;2022-09-09T14:23:23;21.50;99.90
24152;DHT22;12311;50.866;4.332;2022-09-09T14:25:50;21.00;99.90
24152;DHT22;12311;50.866;4.332;2022-09-09T14:28:16;21.00;99.90
24152;DHT22;12311;50.866;4.332;2022-09-09T14:30:43;20.70;99.90
24152;DHT22;12311;50.866;4.332;2022-09-09T14:33:11;20.70;99.90
24152;DHT22;12311;50.866;4.332;2022-09-09T14:35:37;20.80;99.90
24152;DHT22;12311;50.866;4.332;2022-09-09T14:38:04;20.90;99.90
24152;DHT22;12311;50.866;4.332;2022-09-09T14:40:30;21.00;99.90
24152;DHT22;12311;50.866;4.332;2022-09-09T14:42:56;21.00;99.90
24152;DHT22;12311;50.866;4.332;2022-09-09T14:45:22;21.20;99.90
24152;DHT22;12311;50.866;4.332;2022-09-09T14:47:50;20.90;99.90
24152;DHT22;12311;50.866;4.332;2022-09-09T14:50:17;21.00;99.90
24152;DHT22;12311;50.866;4.332;2022-09-09T14:52:43;21.10;99.90
24152;DHT22;12311;50.866;4.332;2022-09-09T14:55:09;21.60;99.90
24152;DHT22;12311;50.866;4.332;2022-09-09T14:57:34;21.60;99.90
24152;DHT22;12311;50.866;4.332;2022-09-09T15:00:02;21.50;99.90
24152;DHT22;12311;50.866;4.332;2022-09-09T15:02:29;21.40;99.90
24152;DHT22;12311;50.866;4.332;2022-09-09T15:04:55;21.50;99.90
24152;DHT22;12311;50.866;4.332;2022-09-09T15:07:23;21.50;99.90
24152;DHT22;12311;50.866;4.332;2022-09-09T15:09:50;21.50;99.90
24152;DHT22;12311;50.866;4.332;2022-09-09T15:12:15;21.50;99.90
24152;DHT22;12311;50.866;4.332;2022-09-09T15:14:44;21.10;99.90
24152;DHT22;12311;50.866;4.332;2022-09-09T15:17:10;20.90;99.90
24152;DHT22;12311;50.866;4.332;2022-09-09T15:19:36;20.80;99.90
24152;DHT22;12311;50.866;4.332;2022-09-09T15:22:02;20.80;99.90
24152;DHT22;12311;50.866;4.332;2022-09-09T15:24:28;21.10;99.90
24152;DHT22;12311;50.866;4.332;2022-09-09T15:26:54;21.00;99.90
24152;DHT22;12311;50.866;4.332;2022-09-09T15:29:19;20.90;99.90
24152;DHT22;12311;50.866;4.332;2022-09-09T15:31:45;20.70;99.90
24152;DHT22;12311;50.866;4.332;2022-09-09T15:34:12;20.50;99.90
24152;DHT22;12311;50.866;4.332;2022-09-09T15:36:45;20.40;99.90
24152;DHT22;12311;50.866;4.332;2022-09-09T15:39:15;20.30;99.90
24152;DHT22;12311;50.866;4.332;2022-09-09T15:41:46;20.30;99.90
24152;DHT22;12311;50.866;4.332;2022-09-09T15:44:13;20.50;99.90
24152;DHT22;12311;50.866;4.332;2022-09-09T15:49:19;21.30;99.90
24152;DHT22;12311;50.866;4.332;2022-09-09T15:51:55;21.10;99.90
24152;DHT22;12311;50.866;4.332;2022-09-09T15:54:23;21.00;99.90
24152;DHT22;12311;50.866;4.332;2022-09-09T15:56:54;20.70;99.90
24152;DHT22;12311;50.866;4.332;2022-09-09T15:59:22;21.00;99.90
24152;DHT22;12311;50.866;4.332;2022-09-09T16:01:48;21.00;99.90
24152;DHT22;12311;50.866;4.332;2022-09-09T16:04:20;20.70;99.90
24152;DHT22;12311;50.866;4.332;2022-09-09T16:06:50;20.60;99.90
24152;DHT22;12311;50.866;4.332;2022-09-09T16:09:16;20.50;99.90
24152;DHT22;12311;50.866;4.332;2022-09-09T16:11:42;20.40;99.90
24152;DHT22;12311;50.866;4.332;2022-09-09T16:14:07;20.30;99.90
24152;DHT22;12311;50.866;4.332;2022-09-09T16:16:34;20.40;99.90
24152;DHT22;12311;50.866;4.332;2022-09-09T16:19:03;20.40;99.90
24152;DHT22;12311;50.866;4.332;2022-09-09T16:21:36;20.40;99.90
24152;DHT22;12311;50.866;4.332;2022-09-09T16:24:04;20.20;99.90
24152;DHT22;12311;50.866;4.332;2022-09-09T16:26:33;19.90;99.90
24152;DHT22;12311;50.866;4.332;2022-09-09T16:28:59;19.40;99.90
24152;DHT22;12311;50.866;4.332;2022-09-09T16:31:27;19.30;99.90
24152;DHT22;12311;50.866;4.332;2022-09-09T16:33:53;19.50;99.90
24152;DHT22;12311;50.866;4.332;2022-09-09T16:36:25;19.80;99.90
24152;DHT22;12311;50.866;4.332;2022-09-09T16:38:54;20.10;99.90
24152;DHT22;12311;50.866;4.332;2022-09-09T16:41:20;20.10;99.90
24152;DHT22;12311;50.866;4.332;2022-09-09T16:43:46;19.90;99.90
24152;DHT22;12311;50.866;4.332;2022-09-09T16:46:19;19.70;99.90
24152;DHT22;12311;50.866;4.332;2022-09-09T16:48:46;19.60;99.90
24152;DHT22;12311;50.866;4.332;2022-09-09T16:51:17;19.50;99.90
24152;DHT22;12311;50.866;4.332;2022-09-09T16:53:43;19.70;99.90
24152;DHT22;12311;50.866;4.332;2022-09-09T16:56:12;19.90;99.90
24152;DHT22;12311;50.866;4.332;2022-09-09T16:58:38;20.00;99.90
24152;DHT22;12311;50.866;4.332;2022-09-09T17:01:04;20.00;99.90
24152;DHT22;12311;50.866;4.332;2022-09-09T17:03:31;20.00;99.90
24152;DHT22;12311;50.866;4.332;2022-09-09T17:05:59;19.90;99.90
24152;DHT22;12311;50.866;4.332;2022-09-09T17:08:29;19.90;99.90
24152;DHT22;12311;50.866;4.332;2022-09-09T17:10:56;19.80;99.90
24152;DHT22;12311;50.866;4.332;2022-09-09T17:13:21;19.50;99.90
24152;DHT22;12311;50.866;4.332;2022-09-09T17:15:47;19.40;99.90
24152;DHT22;12311;50.866;4.332;2022-09-09T17:18:13;19.30;99.90
24152;DHT22;12311;50.866;4.332;2022-09-09T17:20:40;19.30;99.90
24152;DHT22;12311;50.866;4.332;2022-09-09T17:23:07;19.20;99.90
24152;DHT22;12311;50.866;4.332;2022-09-09T17:25:33;19.20;99.90
24152;DHT22;12311;50.866;4.332;2022-09-09T17:28:00;19.10;99.90
24152;DHT22;12311;50.866;4.332;2022-09-09T17:30:27;19.00;99.90
24152;DHT22;12311;50.866;4.332;2022-09-09T17:32:53;19.00;99.90
24152;DHT22;12311;50.866;4.332;2022-09-09T17:35:19;18.90;99.90
24152;DHT22;12311;50.866;4.332;2022-09-09T17:37:45;18.90;99.90
24152;DHT22;12311;50.866;4.332;2022-09-09T17:40:11;18.80;99.90
24152;DHT22;12311;50.866;4.332;2022-09-09T17:42:36;18.80;99.90
24152;DHT22;12311;50.866;4.332;2022-09-09T17:45:03;18.70;99.90
24152;DHT22;12311;50.866;4.332;2022-09-09T17:47:28;18.70;99.90
24152;DHT22;12311;50.866;4.332;2022-09-09T17:49:56;18.60;99.90
24152;DHT22;12311;50.866;4.332;2022-09-09T17:52:21;18.60;99.90
24152;DHT22;12311;50.866;4.332;2022-09-09T17:54:48;18.50;99.90
24152;DHT22;12311;50.866;4.332;2022-09-09T17:57:15;18.40;99.90
24152;DHT22;12311;50.866;4.332;2022-09-09T17:59:42;18.30;99.90
24152;DHT22;12311;50.866;4.332;2022-09-09T18:02:10;18.20;99.90